createdAt,value
2018-07-20T00:02:10.030Z,53.47
2018-07-20T00:04:39.074Z,52.89
2018-07-20T00:07:08.148Z,52.58
2018-07-20T00:09:37.253Z,52.24
2018-07-20T00:12:06.805Z,52.53
2018-07-20T00:14:35.898Z,53.23
2018-07-20T00:17:05.123Z,53.05
2018-07-20T00:19:34.295Z,52.24
2018-07-20T00:22:03.446Z,52.00
2018-07-20T00:24:32.417Z,52.93
2018-07-20T00:27:01.508Z,53.13
2018-07-20T00:29:30.562Z,53.48
2018-07-20T00:31:59.625Z,53.70
2018-07-20T00:34:28.882Z,52.93
2018-07-20T00:36:57.996Z,53.20
2018-07-20T00:39:27.194Z,52.73
2018-07-20T00:41:57.239Z,53.70
2018-07-20T00:44:26.366Z,52.01
2018-07-20T00:46:55.491Z,53.54
2018-07-20T00:49:24.574Z,53.85
2018-07-20T00:51:53.637Z,54.75
2018-07-20T00:54:22.663Z,54.11
2018-07-20T00:56:51.977Z,53.97
2018-07-20T00:59:21.012Z,54.06
2018-07-20T01:01:50.086Z,54.28
2018-07-20T01:04:19.274Z,54.51
2018-07-20T01:06:48.293Z,54.85
2018-07-20T01:09:17.361Z,54.98
2018-07-20T01:11:46.436Z,55.06
2018-07-20T01:14:15.534Z,54.81
2018-07-20T01:16:44.576Z,55.02
2018-07-20T01:19:13.757Z,54.71
2018-07-20T01:21:43.114Z,54.31
2018-07-20T01:24:12.273Z,54.42
2018-07-20T01:26:41.316Z,55.02
2018-07-20T01:29:10.404Z,54.88
2018-07-20T01:31:39.473Z,55.05
2018-07-20T01:34:08.545Z,54.94
2018-07-20T01:36:37.582Z,53.92
2018-07-20T01:39:07.092Z,53.68
2018-07-20T01:41:36.135Z,54.47
2018-07-20T01:44:05.211Z,54.15
2018-07-20T01:46:34.254Z,54.24
2018-07-20T01:49:03.372Z,55.00
2018-07-20T01:51:32.502Z,54.93
2018-07-20T01:54:01.621Z,55.30
2018-07-20T01:56:30.710Z,55.32
2018-07-20T01:58:59.910Z,54.56
2018-07-20T02:01:29.008Z,54.81
2018-07-20T02:03:58.081Z,55.22
2018-07-20T02:06:27.210Z,55.98
2018-07-20T02:08:56.317Z,55.64
2018-07-20T02:11:25.389Z,55.37
2018-07-20T02:13:54.433Z,56.60
2018-07-20T02:16:23.526Z,57.33
2018-07-20T02:18:52.616Z,56.26
2018-07-20T02:21:21.688Z,57.20
2018-07-20T02:23:52.039Z,57.56
2018-07-20T02:26:21.129Z,57.97
2018-07-20T02:28:50.209Z,57.00
2018-07-20T02:31:19.323Z,57.15
2018-07-20T02:33:48.378Z,57.54
2018-07-20T02:36:17.513Z,57.33
2018-07-20T02:38:46.653Z,56.59
2018-07-20T02:41:15.732Z,57.62
2018-07-20T02:43:44.789Z,57.55
2018-07-20T02:46:13.847Z,57.54
2018-07-20T02:48:42.903Z,57.70
2018-07-20T02:51:11.965Z,57.69
2018-07-20T02:53:41.020Z,57.53
2018-07-20T02:56:10.142Z,57.79
2018-07-20T02:58:39.269Z,57.58
2018-07-20T03:01:08.365Z,58.09
2018-07-20T03:03:37.420Z,58.30
2018-07-20T03:06:06.462Z,57.38
2018-07-20T03:08:35.657Z,57.08
2018-07-20T03:11:04.686Z,57.68
2018-07-20T03:13:33.745Z,58.18
2018-07-20T03:16:02.889Z,57.27
2018-07-20T03:18:32.398Z,57.75
2018-07-20T03:21:01.605Z,58.13
2018-07-20T03:23:31.660Z,58.26
2018-07-20T03:26:00.729Z,58.23
2018-07-20T03:28:29.825Z,57.91
2018-07-20T03:30:58.905Z,58.24
2018-07-20T03:33:28.029Z,57.98
2018-07-20T03:35:57.129Z,59.57
2018-07-20T03:38:26.196Z,59.49
2018-07-20T03:40:55.233Z,59.22
2018-07-20T03:43:24.281Z,59.25
2018-07-20T03:45:53.642Z,58.94
2018-07-20T03:48:22.767Z,58.52
2018-07-20T03:50:51.822Z,59.40
2018-07-20T03:53:20.960Z,59.35
2018-07-20T03:55:50.118Z,59.80
2018-07-20T03:58:19.204Z,59.23
2018-07-20T04:00:48.495Z,59.44
2018-07-20T04:03:17.603Z,59.53
2018-07-20T04:05:46.686Z,59.82
2018-07-20T04:08:15.745Z,59.62
2018-07-20T04:10:44.826Z,59.83
2018-07-20T04:13:13.891Z,60.20
2018-07-20T04:15:42.976Z,59.01
2018-07-20T04:18:12.083Z,59.51
2018-07-20T04:20:41.278Z,59.77
2018-07-20T04:23:10.326Z,59.44
2018-07-20T04:25:39.400Z,59.50
2018-07-20T04:28:08.470Z,58.95
2018-07-20T04:30:37.578Z,58.97
2018-07-20T04:33:06.817Z,58.90
2018-07-20T04:35:35.982Z,58.51
2018-07-20T04:38:05.043Z,59.11
2018-07-20T04:40:34.139Z,59.27
2018-07-20T04:43:03.161Z,59.21
2018-07-20T04:45:32.222Z,59.64
2018-07-20T04:48:01.248Z,58.98
2018-07-20T04:50:30.321Z,59.05
2018-07-20T04:52:59.379Z,59.64
2018-07-20T04:55:28.438Z,59.54
2018-07-20T04:57:57.483Z,58.99
2018-07-20T05:00:26.538Z,59.81
2018-07-20T05:02:55.657Z,59.70
2018-07-20T05:05:24.762Z,59.23
2018-07-20T05:07:53.885Z,59.01
2018-07-20T05:10:22.913Z,58.28
2018-07-20T05:12:52.369Z,57.77
2018-07-20T05:15:21.510Z,57.80
2018-07-20T05:17:50.603Z,57.09
2018-07-20T05:20:19.661Z,58.00
2018-07-20T05:22:48.806Z,57.24
2018-07-20T05:25:17.877Z,58.21
2018-07-20T05:27:46.962Z,57.51
2018-07-20T05:30:16.878Z,57.64
2018-07-20T05:32:46.136Z,56.74
2018-07-20T05:35:15.231Z,57.89
2018-07-20T05:37:44.457Z,57.25
2018-07-20T05:40:13.628Z,57.23
2018-07-20T05:42:42.823Z,56.93
2018-07-20T05:45:11.946Z,56.90
2018-07-20T05:47:41.013Z,56.04
2018-07-20T05:50:10.184Z,57.00
2018-07-20T05:52:39.237Z,55.69
2018-07-20T05:55:08.258Z,56.58
2018-07-20T05:57:37.319Z,56.17
2018-07-20T06:00:07.553Z,55.92
2018-07-20T06:02:36.565Z,56.22
2018-07-20T06:05:05.725Z,55.18
2018-07-20T06:07:34.897Z,55.07
2018-07-20T06:10:04.158Z,54.20
2018-07-20T06:12:33.349Z,54.70
2018-07-20T06:15:02.555Z,53.71
2018-07-20T06:17:31.758Z,53.56
2018-07-20T06:20:00.843Z,52.24
2018-07-20T06:22:29.942Z,52.13
2018-07-20T06:24:59.027Z,51.21
2018-07-20T06:27:28.061Z,52.02
2018-07-20T06:29:57.146Z,52.42
2018-07-20T06:32:26.318Z,52.58
2018-07-20T06:34:55.494Z,52.44
2018-07-20T06:37:24.622Z,52.72
2018-07-20T06:39:53.745Z,52.93
2018-07-20T06:42:22.809Z,51.52
2018-07-20T06:44:51.913Z,50.84
2018-07-20T06:47:20.970Z,51.04
2018-07-20T06:49:50.188Z,50.21
2018-07-20T06:52:19.286Z,50.00
2018-07-20T06:54:48.460Z,49.14
2018-07-20T06:57:18.384Z,48.74
2018-07-20T06:59:47.494Z,48.87
2018-07-20T07:02:16.577Z,49.10
2018-07-20T07:04:45.722Z,48.20
2018-07-20T07:07:14.990Z,47.87
2018-07-20T07:09:44.167Z,47.19
2018-07-20T07:12:13.896Z,47.99
2018-07-20T07:14:43.162Z,47.16
2018-07-20T07:17:12.317Z,47.46
2018-07-20T07:19:42.009Z,46.98
2018-07-20T07:22:11.196Z,47.63
2018-07-20T07:24:40.350Z,47.59
2018-07-20T07:27:09.559Z,47.10
2018-07-20T07:29:38.626Z,45.63
2018-07-20T07:32:07.856Z,46.30
2018-07-20T07:34:37.040Z,46.07
2018-07-20T07:37:06.172Z,46.29
2018-07-20T07:39:35.239Z,45.51
2018-07-20T07:42:04.412Z,45.10
2018-07-20T07:44:33.469Z,44.48
2018-07-20T07:47:02.596Z,44.54
2018-07-20T07:49:31.744Z,43.49
2018-07-20T07:52:00.840Z,43.90
2018-07-20T07:54:30.055Z,42.80
2018-07-20T07:56:59.170Z,42.88
2018-07-20T07:59:28.285Z,42.80
2018-07-20T08:01:57.350Z,42.32
2018-07-20T08:04:26.618Z,41.75
2018-07-20T08:06:56.690Z,40.69
2018-07-20T08:09:25.771Z,40.98
2018-07-20T08:11:54.847Z,40.55
2018-07-20T08:14:24.020Z,40.24
2018-07-20T08:16:53.127Z,40.49
2018-07-20T08:19:22.227Z,39.35
2018-07-20T08:21:51.452Z,39.23
2018-07-20T08:24:20.706Z,38.54
2018-07-20T08:26:49.944Z,38.11
2018-07-20T08:29:19.131Z,38.16
2018-07-20T08:31:48.260Z,38.52
2018-07-20T08:34:17.369Z,38.72
2018-07-20T08:36:46.445Z,38.49
2018-07-20T08:39:15.564Z,37.71
2018-07-20T08:41:44.633Z,37.19
2018-07-20T08:44:13.778Z,37.04
2018-07-20T08:46:42.846Z,36.39
2018-07-20T08:49:12.590Z,37.30
2018-07-20T08:51:41.638Z,36.15
2018-07-20T08:54:10.774Z,35.90
2018-07-20T08:56:39.877Z,35.31
2018-07-20T08:59:09.102Z,35.17
2018-07-20T09:01:38.160Z,35.37
2018-07-20T09:04:07.223Z,35.63
2018-07-20T09:06:36.301Z,35.56
2018-07-20T09:09:06.705Z,33.75
2018-07-20T09:11:35.985Z,33.31
2018-07-20T09:14:05.125Z,33.58
2018-07-20T09:16:34.197Z,32.96
2018-07-20T09:19:03.372Z,31.78
2018-07-20T09:21:32.561Z,32.12
2018-07-20T09:24:01.709Z,30.64
2018-07-20T09:26:31.125Z,30.75
2018-07-20T09:29:00.421Z,31.75
2018-07-20T09:31:29.615Z,30.79
2018-07-20T09:33:59.086Z,31.58
2018-07-20T09:36:28.351Z,31.37
2018-07-20T09:38:57.982Z,30.40
2018-07-20T09:41:27.089Z,29.87
2018-07-20T09:43:56.274Z,29.79
2018-07-20T09:46:25.625Z,29.92
2018-07-20T09:48:55.214Z,30.45
2018-07-20T09:51:24.315Z,28.87
2018-07-20T09:53:53.450Z,28.82
2018-07-20T09:56:22.625Z,29.22
2018-07-20T09:58:51.766Z,28.30
2018-07-20T10:01:21.098Z,27.94
2018-07-20T10:03:50.276Z,29.06
2018-07-20T10:06:19.322Z,28.31
2018-07-20T10:08:48.555Z,28.01
2018-07-20T10:11:17.747Z,28.13
2018-07-20T10:13:47.025Z,27.61
2018-07-20T10:16:16.226Z,26.95
2018-07-20T10:18:45.419Z,26.92
2018-07-20T10:21:14.522Z,27.35
2018-07-20T10:23:43.684Z,28.12
2018-07-20T10:26:12.917Z,27.28
2018-07-20T10:28:42.018Z,26.99
2018-07-20T10:31:11.082Z,27.58
2018-07-20T10:33:40.294Z,27.39
2018-07-20T10:36:09.493Z,26.13
2018-07-20T10:38:38.546Z,27.04
2018-07-20T10:41:07.955Z,26.96
2018-07-20T10:43:41.327Z,25.97
2018-07-20T10:46:10.456Z,25.70
2018-07-20T10:48:39.585Z,26.51
2018-07-20T10:51:08.722Z,26.01
2018-07-20T10:53:37.846Z,27.03
2018-07-20T10:56:06.966Z,27.01
2018-07-20T10:58:36.242Z,25.82
2018-07-20T11:01:05.362Z,25.78
2018-07-20T11:03:34.578Z,25.69
2018-07-20T11:06:03.709Z,25.44
2018-07-20T11:08:33.312Z,25.80
2018-07-20T11:11:02.439Z,25.14
2018-07-20T11:13:31.604Z,25.34
2018-07-20T11:16:00.767Z,25.09
2018-07-20T11:18:29.850Z,26.11
2018-07-20T11:20:59.050Z,25.19
2018-07-20T11:23:28.198Z,25.10
2018-07-20T11:25:57.795Z,25.26
2018-07-20T11:28:27.002Z,24.36
2018-07-20T11:30:56.225Z,24.56
2018-07-20T11:33:25.337Z,25.23
2018-07-20T11:35:54.616Z,25.64
2018-07-20T11:38:23.749Z,24.30
2018-07-20T11:40:52.973Z,24.70
2018-07-20T11:43:22.108Z,24.48
2018-07-20T11:45:51.299Z,24.20
2018-07-20T11:48:20.453Z,24.99
2018-07-20T11:50:49.583Z,23.60
2018-07-20T11:53:19.428Z,23.53
2018-07-20T11:55:48.489Z,24.35
2018-07-20T11:58:17.582Z,23.91
2018-07-20T12:00:47.073Z,23.65
2018-07-20T12:03:16.387Z,23.73
2018-07-20T12:05:45.512Z,23.83
2018-07-20T12:08:14.551Z,22.94
2018-07-20T12:10:43.676Z,23.56
2018-07-20T12:13:12.884Z,22.67
2018-07-20T12:15:42.494Z,22.32
2018-07-20T12:18:14.538Z,22.56
2018-07-20T12:20:43.762Z,21.83
2018-07-20T12:23:15.061Z,22.06
2018-07-20T12:25:44.126Z,22.87
2018-07-20T12:28:13.239Z,22.04
2018-07-20T12:30:42.443Z,22.68
2018-07-20T12:33:11.577Z,21.80
2018-07-20T12:35:40.650Z,21.40
2018-07-20T12:38:09.774Z,21.15
2018-07-20T12:40:38.804Z,21.33
2018-07-20T12:43:07.908Z,21.30
2018-07-20T12:45:36.978Z,21.37
2018-07-20T12:48:06.146Z,21.76
2018-07-20T12:50:35.179Z,21.08
2018-07-20T12:53:04.227Z,21.79
2018-07-20T12:55:33.376Z,21.39
2018-07-20T12:58:02.477Z,22.17
2018-07-20T13:00:31.578Z,21.75
2018-07-20T13:03:00.669Z,21.89
2018-07-20T13:05:29.812Z,20.77
2018-07-20T13:07:58.901Z,21.22
2018-07-20T13:10:27.983Z,20.80
2018-07-20T13:12:57.055Z,20.05
2018-07-20T13:15:26.137Z,20.49
2018-07-20T13:17:55.369Z,20.62
2018-07-20T13:20:24.458Z,21.33
2018-07-20T13:22:53.538Z,20.41
2018-07-20T13:25:22.738Z,20.65
2018-07-20T13:27:51.762Z,20.56
2018-07-20T13:30:20.818Z,21.85
2018-07-20T13:32:50.117Z,21.66
2018-07-20T13:35:19.240Z,20.47
2018-07-20T13:37:48.347Z,20.94
2018-07-20T13:40:17.589Z,21.22
2018-07-20T13:42:46.731Z,21.65
2018-07-20T13:45:15.877Z,21.95
2018-07-20T13:47:44.950Z,21.37
2018-07-20T13:50:14.049Z,21.05
2018-07-20T13:52:43.147Z,21.42
2018-07-20T13:55:12.239Z,21.05
2018-07-20T13:57:41.407Z,19.91
2018-07-20T14:00:10.729Z,20.65
2018-07-20T14:02:39.803Z,20.28
2018-07-20T14:05:08.925Z,20.12
2018-07-20T14:07:37.994Z,20.14
2018-07-20T14:10:07.179Z,19.67
2018-07-20T14:12:36.227Z,19.61
2018-07-20T14:15:05.873Z,20.08
2018-07-20T14:17:34.941Z,20.43
2018-07-20T14:20:04.210Z,20.16
2018-07-20T14:22:33.309Z,20.16
2018-07-20T14:25:02.354Z,20.45
2018-07-20T14:27:31.461Z,20.58
2018-07-20T14:30:00.568Z,21.42
2018-07-20T14:32:29.688Z,21.28
2018-07-20T14:34:58.838Z,21.58
2018-07-20T14:37:27.892Z,22.46
2018-07-20T14:39:57.032Z,22.56
2018-07-20T14:42:26.090Z,23.00
2018-07-20T14:44:55.124Z,22.35
2018-07-20T14:47:24.234Z,22.43
2018-07-20T14:49:53.477Z,23.56
2018-07-20T14:52:22.612Z,23.58
2018-07-20T14:54:51.666Z,23.13
2018-07-20T14:57:20.734Z,23.72
2018-07-20T14:59:49.938Z,24.24
2018-07-20T15:02:20.024Z,25.11
2018-07-20T15:04:49.043Z,25.29
2018-07-20T15:07:18.255Z,25.65
2018-07-20T15:09:47.311Z,24.73
2018-07-20T15:12:16.384Z,25.65
2018-07-20T15:14:45.452Z,26.68
2018-07-20T15:17:14.607Z,25.00
2018-07-20T15:19:43.712Z,25.95
2018-07-20T15:22:12.777Z,25.31
2018-07-20T15:24:42.732Z,25.38
2018-07-20T15:27:11.728Z,25.28
2018-07-20T15:29:40.852Z,26.16
2018-07-20T15:32:11.048Z,26.10
2018-07-20T15:34:40.137Z,26.35
2018-07-20T15:37:09.233Z,25.59
2018-07-20T15:39:38.530Z,25.36
2018-07-20T15:42:09.958Z,25.39
2018-07-20T15:44:39.082Z,26.05
2018-07-20T15:47:08.131Z,24.56
2018-07-20T15:49:37.196Z,26.04
2018-07-20T15:54:35.396Z,24.91
2018-07-20T15:57:04.438Z,26.37
2018-07-20T15:59:33.559Z,26.64
2018-07-20T16:02:03.157Z,27.53
2018-07-20T16:04:32.268Z,27.50
2018-07-20T16:07:01.368Z,26.88
2018-07-20T16:09:30.489Z,26.51
2018-07-20T16:11:59.551Z,26.16
2018-07-20T16:14:28.611Z,25.82
2018-07-20T16:16:57.705Z,24.49
2018-07-20T16:19:26.812Z,24.28
2018-07-20T16:21:55.893Z,24.88
2018-07-20T16:24:24.970Z,24.53
2018-07-20T16:26:54.425Z,25.35
2018-07-20T16:29:23.493Z,24.68
2018-07-20T16:31:52.693Z,24.73
2018-07-20T16:34:21.793Z,25.89
2018-07-20T16:36:50.879Z,25.44
2018-07-20T16:39:19.926Z,25.63
2018-07-20T16:41:49.054Z,25.57
2018-07-20T16:44:18.226Z,27.35
2018-07-20T16:46:47.393Z,26.82
2018-07-20T16:49:16.451Z,27.25
2018-07-20T16:51:45.570Z,27.59
2018-07-20T16:54:14.630Z,27.30
2018-07-20T16:56:43.701Z,27.58
2018-07-20T16:59:12.902Z,28.18
2018-07-20T17:01:41.942Z,28.82
2018-07-20T17:04:10.989Z,29.66
2018-07-20T17:06:40.126Z,29.62
2018-07-20T17:09:10.562Z,30.64
2018-07-20T17:11:39.652Z,29.97
2018-07-20T17:14:08.845Z,31.10
2018-07-20T17:16:37.905Z,31.70
2018-07-20T17:19:07.045Z,31.66
2018-07-20T17:21:36.101Z,31.56
2018-07-20T17:24:06.336Z,32.07
2018-07-20T17:26:35.904Z,31.43
2018-07-20T17:29:05.040Z,31.34
2018-07-20T17:31:34.202Z,32.46
2018-07-20T17:34:03.408Z,32.19
2018-07-20T17:36:32.757Z,31.94
2018-07-20T17:39:01.988Z,31.95
2018-07-20T17:41:31.030Z,32.22
2018-07-20T17:44:00.127Z,32.11
2018-07-20T17:46:29.161Z,31.71
2018-07-20T17:48:58.237Z,32.22
2018-07-20T17:51:27.280Z,31.96
2018-07-20T17:53:56.325Z,32.70
2018-07-20T17:56:25.393Z,32.24
2018-07-20T17:58:54.454Z,31.71
2018-07-20T18:01:23.626Z,33.02
2018-07-20T18:03:53.044Z,32.51
2018-07-20T18:06:23.069Z,31.64
2018-07-20T18:08:52.410Z,32.55
2018-07-20T18:11:21.787Z,32.05
2018-07-20T18:13:50.910Z,33.60
2018-07-20T18:16:20.043Z,34.32
2018-07-20T18:18:49.162Z,34.43
2018-07-20T18:21:18.282Z,35.02
2018-07-20T18:23:47.337Z,35.89
2018-07-20T18:26:16.482Z,37.20
2018-07-20T18:28:45.649Z,36.07
2018-07-20T18:31:15.045Z,36.96
2018-07-20T18:33:44.225Z,37.27
2018-07-20T18:36:13.472Z,37.23
2018-07-20T18:38:42.679Z,39.30
2018-07-20T18:41:11.779Z,38.55
2018-07-20T18:43:41.038Z,38.52
2018-07-20T18:46:10.866Z,37.95
2018-07-20T18:48:40.045Z,39.53
2018-07-20T18:51:10.083Z,38.95
2018-07-20T18:53:39.262Z,39.96
2018-07-20T18:56:08.614Z,38.60
2018-07-20T18:58:37.691Z,39.06
2018-07-20T19:01:06.921Z,38.90
2018-07-20T19:03:36.024Z,38.57
2018-07-20T19:06:05.150Z,39.48
2018-07-20T19:08:34.311Z,38.94
2018-07-20T19:11:03.463Z,38.08
2018-07-20T19:13:32.673Z,39.87
2018-07-20T19:16:01.930Z,39.31
2018-07-20T19:18:31.078Z,39.56
2018-07-20T19:21:00.446Z,39.66
2018-07-20T19:23:29.722Z,39.41
2018-07-20T19:25:58.794Z,39.79
2018-07-20T19:28:27.899Z,41.08
2018-07-20T19:30:57.014Z,40.08
2018-07-20T19:33:26.059Z,40.77
2018-07-20T19:35:55.131Z,39.88
2018-07-20T19:38:24.213Z,41.22
2018-07-20T19:40:53.435Z,41.53
2018-07-20T19:43:22.572Z,40.24
2018-07-20T19:45:51.626Z,40.58
2018-07-20T19:48:20.786Z,40.95
2018-07-20T19:50:49.856Z,40.69
2018-07-20T19:53:18.994Z,41.80
2018-07-20T19:55:48.081Z,41.64
2018-07-20T19:58:17.196Z,41.08
2018-07-20T20:00:46.573Z,40.92
2018-07-20T20:03:15.820Z,41.74
2018-07-20T20:05:44.853Z,41.93
2018-07-20T20:08:14.373Z,41.14
2018-07-20T20:10:43.486Z,41.63
2018-07-20T20:13:12.681Z,41.35
2018-07-20T20:15:42.267Z,41.06
2018-07-20T20:18:11.345Z,42.18
2018-07-20T20:20:40.446Z,42.34
2018-07-20T20:23:09.670Z,41.90
2018-07-20T20:25:40.323Z,42.77
2018-07-20T20:28:09.424Z,42.57
2018-07-20T20:30:39.498Z,42.73
2018-07-20T20:33:08.689Z,42.55
2018-07-20T20:35:37.805Z,42.95
2018-07-20T20:38:06.925Z,42.64
2018-07-20T20:40:36.075Z,42.85
2018-07-20T20:43:05.129Z,42.88
2018-07-20T20:45:34.428Z,42.90
2018-07-20T20:48:03.562Z,43.65
2018-07-20T20:50:34.576Z,44.46
2018-07-20T20:53:03.947Z,45.20
2018-07-20T20:55:33.634Z,45.87
2018-07-20T20:58:02.886Z,47.30
2018-07-20T21:00:32.019Z,46.27
2018-07-20T21:03:01.127Z,46.58
2018-07-20T21:05:30.550Z,46.48
2018-07-20T21:08:00.464Z,47.03
2018-07-20T21:10:30.734Z,46.96
2018-07-20T21:12:59.843Z,46.11
2018-07-20T21:15:28.984Z,46.54
2018-07-20T21:17:58.058Z,46.31
2018-07-20T21:20:27.170Z,47.11
2018-07-20T21:22:56.354Z,47.18
2018-07-20T21:25:25.657Z,46.64
2018-07-20T21:27:54.725Z,46.92
2018-07-20T21:30:23.858Z,46.57
2018-07-20T21:32:52.981Z,47.99
2018-07-20T21:35:22.038Z,47.54
2018-07-20T21:37:51.143Z,47.52
2018-07-20T21:40:20.290Z,47.80
2018-07-20T21:42:49.403Z,49.45
2018-07-20T21:45:18.708Z,49.22
2018-07-20T21:47:47.722Z,49.94
2018-07-20T21:50:16.822Z,50.04
2018-07-20T21:52:45.949Z,49.83
2018-07-20T21:55:14.980Z,48.66
2018-07-20T21:57:44.114Z,49.29
2018-07-20T22:00:16.178Z,49.59
2018-07-20T22:02:45.264Z,49.80
2018-07-20T22:05:14.434Z,49.97
2018-07-20T22:07:43.548Z,49.98
2018-07-20T22:10:12.597Z,49.66
2018-07-20T22:12:41.690Z,49.31
2018-07-20T22:15:10.925Z,48.50
2018-07-20T22:17:40.095Z,48.55
2018-07-20T22:20:09.879Z,49.13
2018-07-20T22:22:38.972Z,49.48
2018-07-20T22:25:08.267Z,49.84
2018-07-20T22:27:37.757Z,50.21
2018-07-20T22:30:08.467Z,51.37
2018-07-20T22:32:37.636Z,51.05
2018-07-20T22:35:07.273Z,50.43
2018-07-20T22:37:36.439Z,50.45
2018-07-20T22:40:06.098Z,50.10
2018-07-20T22:42:35.414Z,51.16
2018-07-20T22:45:04.558Z,51.33
2018-07-20T22:47:33.656Z,51.42
2018-07-20T22:50:02.804Z,52.35
2018-07-20T22:52:31.886Z,52.56
2018-07-20T22:55:01.147Z,51.89
2018-07-20T22:57:30.813Z,52.78
2018-07-20T23:00:06.477Z,53.68
2018-07-20T23:02:35.855Z,53.81
2018-07-20T23:05:04.997Z,53.80
2018-07-20T23:07:34.117Z,54.31
2018-07-20T23:10:03.196Z,53.64
2018-07-20T23:12:32.256Z,53.85
2018-07-20T23:15:01.417Z,53.83
2018-07-20T23:17:30.554Z,53.65
2018-07-20T23:19:59.610Z,54.19
2018-07-20T23:22:28.706Z,53.05
2018-07-20T23:24:57.787Z,53.80
2018-07-20T23:27:26.897Z,52.89
2018-07-20T23:29:55.987Z,52.80
2018-07-20T23:32:25.077Z,52.88
2018-07-20T23:34:54.156Z,53.73
2018-07-20T23:37:23.483Z,53.08
2018-07-20T23:39:52.565Z,53.29
2018-07-20T23:42:21.601Z,52.89
2018-07-20T23:44:50.710Z,52.53
2018-07-20T23:47:19.792Z,52.59
2018-07-20T23:49:48.858Z,52.18
2018-07-20T23:52:17.951Z,53.31
2018-07-20T23:54:46.989Z,53.34
2018-07-20T23:57:16.037Z,53.19
2018-07-20T23:59:45.137Z,53.04
